createdAt,value
2022-08-27T00:08:46.181Z,100
2022-08-27T00:18:48.190Z,100
2022-08-27T00:28:47.542Z,100
2022-08-27T00:38:48.382Z,99
2022-08-27T00:48:48.873Z,99
2022-08-27T00:58:49.656Z,99
2022-08-27T01:08:50.355Z,98
2022-08-27T01:18:50.741Z,97
2022-08-27T01:38:51.914Z,96
2022-08-27T01:48:53.007Z,95
2022-08-27T01:58:53.932Z,95
2022-08-27T02:08:54.399Z,94
2022-08-27T02:18:54.992Z,94
2022-08-27T02:28:55.861Z,93
2022-08-27T02:38:56.213Z,93
2022-08-27T02:48:56.801Z,92
2022-08-27T02:58:57.720Z,92
2022-08-27T03:08:58.266Z,91
2022-08-27T03:18:58.378Z,91
2022-08-27T03:28:58.770Z,91
2022-08-27T03:38:58.932Z,91
2022-08-27T03:48:59.715Z,90
2022-08-27T03:59:00.238Z,90
2022-08-27T04:09:00.679Z,89
2022-08-27T04:29:01.329Z,89
2022-08-27T04:39:01.917Z,89
2022-08-27T04:49:02.831Z,89
2022-08-27T04:59:03.393Z,89
2022-08-27T05:19:04.793Z,88
2022-08-27T05:39:05.489Z,88
2022-08-27T05:59:07.367Z,87
2022-08-27T06:09:08.056Z,87
2022-08-27T06:19:08.151Z,87
2022-08-27T06:39:10.332Z,86
2022-08-27T07:09:12.041Z,84
2022-08-27T07:19:12.610Z,83
2022-08-27T07:29:13.494Z,82
2022-08-27T07:49:15.171Z,81
2022-08-27T07:59:15.999Z,79
2022-08-27T08:19:17.829Z,75
2022-08-27T08:29:18.493Z,74
2022-08-27T08:39:18.828Z,72
2022-08-27T08:59:19.261Z,72
2022-08-27T09:19:22.302Z,71
2022-08-27T09:39:22.219Z,68
2022-08-27T09:49:22.560Z,68
2022-08-27T09:59:23.564Z,67
2022-08-27T10:09:23.994Z,68
2022-08-27T10:29:25.421Z,67
2022-08-27T10:59:27.942Z,65
2022-08-27T11:29:30.577Z,64
2022-08-27T11:39:31.342Z,64
2022-08-27T12:09:33.256Z,61
2022-08-27T12:19:33.442Z,59
2022-08-27T12:39:35.309Z,62
2022-08-27T12:49:37.085Z,61
2022-08-27T12:59:36.436Z,62
2022-08-27T13:09:36.920Z,62
2022-08-27T13:19:37.310Z,62
2022-08-27T13:29:38.089Z,61
2022-08-27T13:39:38.456Z,61
2022-08-27T13:49:40.084Z,59
2022-08-27T13:59:42.108Z,59
2022-08-27T14:09:40.254Z,59
2022-08-27T14:19:40.426Z,58
2022-08-27T14:29:40.923Z,57
2022-08-27T14:49:42.086Z,59
2022-08-27T14:59:43.149Z,60
2022-08-27T15:09:43.883Z,61
2022-08-27T15:19:44.158Z,62
2022-08-27T15:29:44.416Z,61
2022-08-27T15:39:45.141Z,62
2022-08-27T15:49:46.016Z,62
2022-08-27T15:59:46.841Z,62
2022-08-27T16:09:47.604Z,62
2022-08-27T16:19:48.390Z,63
2022-08-27T16:29:48.575Z,63
2022-08-27T16:39:49.363Z,63
2022-08-27T16:49:49.688Z,63
2022-08-27T16:59:50.202Z,63
2022-08-27T17:09:50.487Z,64
2022-08-27T17:19:51.541Z,63
2022-08-27T17:29:52.399Z,64
2022-08-27T17:39:52.490Z,64
2022-08-27T17:49:52.957Z,65
2022-08-27T17:59:53.655Z,65
2022-08-27T18:09:54.288Z,65
2022-08-27T18:19:54.468Z,65
2022-08-27T18:29:56.407Z,66
2022-08-27T18:39:55.953Z,66
2022-08-27T18:49:56.500Z,66
2022-08-27T18:59:57.547Z,67
2022-08-27T19:09:57.921Z,67
2022-08-27T19:19:58.826Z,67
2022-08-27T19:29:59.537Z,67
2022-08-27T19:39:59.841Z,67
2022-08-27T19:49:59.961Z,66
2022-08-27T20:00:00.499Z,66
2022-08-27T20:20:01.327Z,66
2022-08-27T20:30:02.233Z,67
2022-08-27T20:50:03.854Z,68
2022-08-27T21:10:04.612Z,69
2022-08-27T21:20:04.857Z,69
2022-08-27T21:30:04.995Z,70
2022-08-27T22:10:07.879Z,73
2022-08-27T22:20:08.531Z,73
2022-08-27T22:40:11.103Z,74
2022-08-27T22:50:10.738Z,75
2022-08-27T23:10:12.001Z,76
2022-08-27T23:20:12.606Z,76
2022-08-27T23:30:13.382Z,77
2022-08-27T23:40:14.472Z,78
2022-08-27T23:50:14.940Z,79
